createdAt,value
2018-12-17T00:01:49.404Z,100957.80
2018-12-17T00:06:42.654Z,100949.37
2018-12-17T00:11:36.002Z,100947.68
2018-12-17T00:16:29.219Z,100947.02
2018-12-17T00:21:22.560Z,100948.46
2018-12-17T00:26:15.777Z,100945.11
2018-12-17T00:31:08.986Z,100935.56
2018-12-17T00:36:02.255Z,100942.17
2018-12-17T00:40:55.473Z,100933.20
2018-12-17T00:45:48.704Z,100932.20
2018-12-17T00:50:41.943Z,100934.42
2018-12-17T00:55:35.167Z,100935.16
2018-12-17T01:00:28.411Z,100936.85
2018-12-17T01:05:21.757Z,100940.16
2018-12-17T01:10:14.969Z,100929.48
2018-12-17T01:15:08.555Z,100938.58
2018-12-17T01:20:01.744Z,100942.19
2018-12-17T01:24:54.945Z,100945.98
2018-12-17T01:29:48.175Z,100948.08
2018-12-17T01:34:41.401Z,100942.32
2018-12-17T01:39:34.691Z,100950.22
2018-12-17T01:44:27.953Z,100943.30
2018-12-17T01:49:21.207Z,100942.48
2018-12-17T01:54:14.435Z,100948.93
2018-12-17T01:59:07.735Z,100935.66
2018-12-17T02:04:00.963Z,100930.43
2018-12-17T02:08:54.191Z,100932.48
2018-12-17T02:13:47.470Z,100945.34
2018-12-17T02:18:40.749Z,100959.77
2018-12-17T02:23:33.987Z,100974.82
2018-12-17T02:28:27.197Z,100971.70
2018-12-17T02:33:20.413Z,100976.75
2018-12-17T02:38:13.674Z,100992.06
2018-12-17T02:43:06.904Z,100989.94
2018-12-17T02:48:00.145Z,101000.92
2018-12-17T02:52:53.368Z,100996.22
2018-12-17T02:57:46.624Z,100988.96
2018-12-17T03:02:39.868Z,100990.18
2018-12-17T03:07:33.110Z,101001.02
2018-12-17T03:12:26.363Z,100993.98
2018-12-17T03:17:19.719Z,100993.39
2018-12-17T03:22:12.844Z,100997.29
2018-12-17T03:27:06.064Z,101000.46
2018-12-17T03:31:59.277Z,101007.73
2018-12-17T03:36:52.495Z,101006.91
2018-12-17T03:41:45.768Z,101010.05
2018-12-17T03:46:38.969Z,101008.02
2018-12-17T03:51:32.138Z,101020.80
2018-12-17T03:56:25.397Z,101019.44
2018-12-17T04:01:18.616Z,101018.67
2018-12-17T04:06:11.851Z,101019.16
2018-12-17T04:11:05.130Z,101021.31
2018-12-17T04:15:58.372Z,101025.85
2018-12-17T04:20:51.608Z,101021.91
2018-12-17T04:25:44.954Z,101013.47
2018-12-17T04:30:38.186Z,101008.00
2018-12-17T04:35:31.501Z,101006.48
2018-12-17T04:40:24.741Z,101006.35
2018-12-17T04:45:17.991Z,101007.40
2018-12-17T04:50:11.191Z,101028.02
2018-12-17T04:55:05.601Z,101035.31
2018-12-17T04:59:58.813Z,101035.73
2018-12-17T05:04:52.033Z,101039.45
2018-12-17T05:09:45.283Z,101044.59
2018-12-17T05:14:38.548Z,101044.22
2018-12-17T05:19:31.847Z,101059.97
2018-12-17T05:24:25.083Z,101062.38
2018-12-17T05:29:21.509Z,101059.70
2018-12-17T05:34:13.531Z,101060.70
2018-12-17T05:39:07.363Z,101070.82
2018-12-17T05:44:00.542Z,101069.49
2018-12-17T05:48:53.814Z,101073.98
2018-12-17T05:53:47.048Z,101080.34
2018-12-17T05:58:40.301Z,101088.56
2018-12-17T06:03:33.564Z,101087.08
2018-12-17T06:08:26.800Z,101087.63
2018-12-17T06:13:19.975Z,101096.83
2018-12-17T06:18:13.205Z,101099.41
2018-12-17T06:23:06.464Z,101109.53
2018-12-17T06:27:59.708Z,101116.55
2018-12-17T06:32:52.909Z,101117.06
2018-12-17T06:37:46.156Z,101115.53
2018-12-17T06:42:39.410Z,101115.63
2018-12-17T06:47:32.654Z,101124.95
2018-12-17T06:52:25.884Z,118045.80
2018-12-17T06:57:19.122Z,118045.80
2018-12-17T07:02:12.872Z,118045.80
2018-12-17T07:07:06.110Z,118045.80
2018-12-17T07:11:59.303Z,118045.80
2018-12-17T07:16:53.460Z,118045.80
2018-12-17T07:21:46.740Z,118045.80
2018-12-17T07:26:39.990Z,118045.80
2018-12-17T07:31:33.225Z,118045.80
2018-12-17T07:36:26.462Z,118045.80
2018-12-17T07:41:19.699Z,118045.80
2018-12-17T07:46:12.910Z,118045.80
2018-12-17T07:51:06.191Z,118045.80
2018-12-17T07:55:59.413Z,118045.80
2018-12-17T08:00:52.687Z,118045.80
2018-12-17T08:05:45.930Z,118045.80
2018-12-17T08:10:39.190Z,118045.80
2018-12-17T08:15:39.104Z,118045.80
2018-12-17T08:20:32.390Z,118045.80
2018-12-17T08:25:26.276Z,118045.80
2018-12-17T08:30:19.500Z,118045.80
2018-12-17T08:35:12.721Z,118045.80
2018-12-17T08:40:06.265Z,118045.80
2018-12-17T08:44:59.491Z,118045.80
2018-12-17T08:49:52.725Z,118045.80
2018-12-17T08:54:46.280Z,118045.80
2018-12-17T08:59:39.765Z,118045.80
2018-12-17T09:04:32.967Z,118045.80
2018-12-17T09:09:26.232Z,118045.80
2018-12-17T09:14:19.436Z,118045.80
2018-12-17T09:19:13.210Z,118045.80
2018-12-17T09:24:06.418Z,118045.80
2018-12-17T09:28:59.703Z,118045.80
2018-12-17T09:33:53.028Z,118045.80
2018-12-17T09:38:46.283Z,118045.80
2018-12-17T09:43:39.557Z,118045.80
2018-12-17T09:48:32.816Z,118045.80
2018-12-17T09:53:26.057Z,118045.80
2018-12-17T09:58:19.313Z,118045.80
2018-12-17T10:03:12.973Z,118045.80
2018-12-17T10:08:06.223Z,118045.80
2018-12-17T10:12:59.456Z,118045.80
2018-12-17T10:17:52.901Z,118045.80
2018-12-17T10:22:46.210Z,118045.80
2018-12-17T10:27:39.542Z,118045.80
2018-12-17T10:32:32.804Z,118045.80
2018-12-17T10:37:26.070Z,118045.80
2018-12-17T10:42:19.343Z,118045.80
2018-12-17T10:47:12.625Z,118045.80
2018-12-17T10:52:05.926Z,118045.80
2018-12-17T10:56:59.890Z,118045.80
2018-12-17T11:02:02.580Z,118045.80
2018-12-17T11:06:56.272Z,118045.80
2018-12-17T11:11:49.613Z,118045.80
2018-12-17T11:16:43.036Z,118045.80
2018-12-17T11:21:36.501Z,118045.80
2018-12-17T11:26:29.969Z,118045.80
2018-12-17T11:31:23.536Z,118045.80
2018-12-17T11:36:16.925Z,118045.80
2018-12-17T11:41:13.346Z,118045.80
2018-12-17T11:46:09.834Z,118045.80
2018-12-17T11:51:03.191Z,118045.80
2018-12-17T11:55:56.504Z,118045.80
2018-12-17T12:00:55.598Z,118045.80
2018-12-17T12:05:49.179Z,118045.80
2018-12-17T12:10:42.495Z,118045.80
2018-12-17T12:15:35.798Z,118045.80
2018-12-17T12:20:29.082Z,118045.80
2018-12-17T12:25:22.519Z,118045.80
2018-12-17T12:30:15.769Z,118045.80
2018-12-17T12:35:11.525Z,118045.80
2018-12-17T12:40:06.477Z,118045.80
2018-12-17T12:45:00.033Z,118045.80
2018-12-17T12:49:53.486Z,118045.80
2018-12-17T12:54:47.523Z,118045.80
2018-12-17T12:59:40.898Z,118045.80
2018-12-17T13:04:34.196Z,118045.80
2018-12-17T13:09:28.142Z,118045.80
2018-12-17T13:14:21.461Z,118045.80
2018-12-17T13:19:14.700Z,118045.80
2018-12-17T13:24:07.934Z,118045.80
2018-12-17T13:29:01.309Z,118045.80
2018-12-17T13:33:54.550Z,118045.80
2018-12-17T13:38:47.971Z,118045.80
2018-12-17T13:43:41.297Z,118045.80
2018-12-17T13:48:34.602Z,118045.80
2018-12-17T13:53:32.639Z,118045.80
2018-12-17T13:58:25.928Z,118045.80
2018-12-17T14:03:19.168Z,118045.80
2018-12-17T14:08:12.462Z,118045.80
2018-12-17T14:13:05.801Z,118045.80
2018-12-17T14:18:01.833Z,118045.80
2018-12-17T14:22:55.060Z,118045.80
2018-12-17T14:27:48.354Z,118045.80
2018-12-17T14:32:41.703Z,118045.80
2018-12-17T14:37:39.517Z,118045.80
2018-12-17T14:42:32.747Z,118045.80
2018-12-17T14:47:26.212Z,118045.80
2018-12-17T14:52:19.472Z,118045.80
2018-12-17T14:57:12.750Z,118045.80
2018-12-17T15:02:06.069Z,118045.80
2018-12-17T15:06:59.308Z,118045.80
2018-12-17T15:11:52.598Z,118045.80
2018-12-17T15:16:45.875Z,118045.80
2018-12-17T15:21:39.225Z,118045.80
2018-12-17T15:26:32.489Z,118045.80
2018-12-17T15:31:25.889Z,118045.80
2018-12-17T15:36:19.136Z,118045.80
2018-12-17T15:41:12.385Z,118045.80
2018-12-17T15:46:06.011Z,118045.80
2018-12-17T15:50:59.232Z,118045.80
2018-12-17T15:55:52.600Z,118045.80
2018-12-17T16:00:45.994Z,118045.80
2018-12-17T16:05:39.294Z,118045.80
2018-12-17T16:10:32.536Z,118045.80
2018-12-17T16:15:25.776Z,118045.80
2018-12-17T16:20:19.071Z,118045.80
2018-12-17T16:25:12.721Z,118045.80
2018-12-17T16:30:08.987Z,118045.80
2018-12-17T16:35:02.317Z,118045.80
2018-12-17T16:39:55.525Z,118045.80
2018-12-17T16:44:48.747Z,118045.80
2018-12-17T16:49:43.072Z,118045.80
2018-12-17T16:54:36.279Z,118045.80
2018-12-17T16:59:29.571Z,118045.80
2018-12-17T17:04:22.848Z,118045.80
2018-12-17T17:09:16.122Z,118045.80
2018-12-17T17:14:09.653Z,118045.80
2018-12-17T17:19:03.012Z,118045.80
2018-12-17T17:23:56.230Z,118045.80
2018-12-17T17:28:49.503Z,118045.80
2018-12-17T17:33:43.330Z,118045.80
2018-12-17T17:38:37.218Z,118045.80
2018-12-17T17:43:30.532Z,118045.80
2018-12-17T17:48:23.792Z,118045.80
2018-12-17T17:53:17.042Z,118045.80
2018-12-17T17:58:10.306Z,118045.80
2018-12-17T18:03:04.483Z,118045.80
2018-12-17T18:07:57.717Z,118045.80
2018-12-17T18:12:51.035Z,118045.80
2018-12-17T18:17:44.273Z,118045.80
2018-12-17T18:22:37.549Z,118045.80
2018-12-17T18:27:30.861Z,118045.80
2018-12-17T18:32:26.173Z,118045.80
2018-12-17T18:37:19.414Z,118045.80
2018-12-17T18:42:12.780Z,118045.80
2018-12-17T18:47:06.176Z,118045.80
2018-12-17T18:51:59.959Z,118045.80
2018-12-17T18:56:53.247Z,118045.80
2018-12-17T19:01:46.557Z,118045.80
2018-12-17T19:06:39.991Z,118045.80
2018-12-17T19:11:33.283Z,118045.80
2018-12-17T19:16:26.525Z,118045.80
2018-12-17T19:21:19.907Z,118045.80
2018-12-17T19:26:13.248Z,118045.80
2018-12-17T19:31:06.593Z,118045.80
2018-12-17T19:35:59.929Z,118045.80
2018-12-17T19:40:53.277Z,118045.80
2018-12-17T19:45:46.644Z,118045.80
2018-12-17T19:50:40.912Z,118045.80
2018-12-17T19:55:34.224Z,118045.80
2018-12-17T20:00:27.602Z,118045.80
2018-12-17T20:05:20.910Z,118045.80
2018-12-17T20:10:19.775Z,118045.80
2018-12-17T20:15:13.131Z,118045.80
2018-12-17T20:20:07.194Z,118045.80
2018-12-17T20:25:00.442Z,118045.80
2018-12-17T20:29:53.662Z,118045.80
2018-12-17T20:34:47.509Z,118045.80
2018-12-17T20:39:40.992Z,118045.80
2018-12-17T20:44:34.444Z,118045.80
2018-12-17T20:49:27.684Z,118045.80
2018-12-17T20:54:21.370Z,118045.80
2018-12-17T20:59:14.656Z,118045.80
2018-12-17T21:04:07.873Z,118045.80
2018-12-17T21:09:01.097Z,118045.80
2018-12-17T21:13:54.432Z,118045.80
2018-12-17T21:18:47.758Z,118045.80
2018-12-17T21:23:41.211Z,118045.80
2018-12-17T21:28:34.451Z,118045.80
2018-12-17T21:33:27.684Z,118045.80
2018-12-17T21:38:20.968Z,118045.80
2018-12-17T21:43:14.193Z,118045.80
2018-12-17T21:48:07.423Z,118045.80
2018-12-17T21:53:00.679Z,118045.80
2018-12-17T21:57:53.937Z,118045.80
2018-12-17T22:02:47.171Z,118045.80
2018-12-17T22:07:40.458Z,118045.80
2018-12-17T22:12:33.859Z,118045.80
2018-12-17T22:17:27.084Z,118045.80
2018-12-17T22:22:20.312Z,118045.80
2018-12-17T22:27:13.568Z,118045.80
2018-12-17T22:32:06.911Z,118045.80
2018-12-17T22:37:00.092Z,118045.80
2018-12-17T22:41:53.268Z,118045.80
2018-12-17T22:46:46.479Z,118045.80
2018-12-17T22:51:39.744Z,118045.80
2018-12-17T22:56:32.945Z,118045.80
2018-12-17T23:01:26.163Z,118045.80
2018-12-17T23:06:19.499Z,118045.80
2018-12-17T23:11:29.856Z,118045.80
2018-12-17T23:16:40.040Z,118045.80
2018-12-17T23:21:33.335Z,118045.80
2018-12-17T23:26:27.139Z,118045.80
2018-12-17T23:31:20.341Z,118045.80
2018-12-17T23:36:13.597Z,118045.80
2018-12-17T23:41:06.806Z,118045.80
2018-12-17T23:46:00.077Z,118045.80
2018-12-17T23:50:53.280Z,118045.80
2018-12-17T23:55:47.121Z,118045.80
